Historique des mesures à Cassis (13260), France
Quotidien Résumé Mars 31, 2017 Unités:  Métrique    US   Métrique/US
« Précédent (Jour)
Suivant (Jour) »
Quotidien Hebdomadaire Mensuel Annuel Période au choix
  Maximum: Minimum: Moyenne:
Température: TemperatureC °C 11.2 °C 14.3 °C
Point de rosée: DewpointC °C 5.2 °C 9.1 °C
Humidité: Humidity % 59 % 67 %
Vitesse du vent: 0 km/h 0 km/h 3.1 km/h
Rafales: 0 km/h - -
Vent:- - SSE
Pression: PressurehPa hPa 1015.8 hPa -
Précipitations: 0.0 mm    
Historical Graphs
 
 
Mesures pour : Mars 31, 2017
Heure Temperature Point de rosée Pression Vent Vitesse du vent Rafales Humidité Pluie (par heure) Conditions
TemperatureC °C DewpointC °C PressurehPa hPa Calm     Humidity % HourlyPrecipMM mm SoftwareType W/m2
00:11 13.5 °C 5.7 °C 1022.2 hPa North 2.3 km/h 2.3 km/h 59 % 0.0 mm open2300-1.11 W/m2
02:11 12.5 °C 5.2 °C 1021.6 hPa North 2.3 km/h 5.6 km/h 61 % 0.0 mm open2300-1.11 W/m2
03:11 12.2 °C 5.6 °C 1021.2 hPa Calm   9.3 km/h 64 % 0.0 mm open2300-1.11 W/m2
04:11 11.6 °C 5.7 °C 1020.9 hPa Calm     67 % 0.0 mm open2300-1.11 W/m2
05:11 12.2 °C 7.7 °C 1020.5 hPa Calm   2.3 km/h 74 % 0.0 mm open2300-1.11 W/m2
06:11 11.6 °C 6.9 °C 1020.5 hPa NW 5.6 km/h 5.6 km/h 73 % 0.0 mm open2300-1.11 W/m2
07:11 11.2 °C 6.6 °C 1020.2 hPa NNE 2.3 km/h 2.3 km/h 73 % 0.0 mm open2300-1.11 W/m2
08:11 11.5 °C 6.8 °C 1020.5 hPa NNE 3.4 km/h 3.4 km/h 73 % 0.0 mm open2300-1.11 W/m2
09:11 13.3 °C 8.2 °C 1020.5 hPa Calm     71 % 0.0 mm open2300-1.11 W/m2
10:11 14.8 °C 8.9 °C 1020.9 hPa SSE 1.8 km/h 9.3 km/h 68 % 0.0 mm open2300-1.11 W/m2
11:11 15.7 °C 10.5 °C 1021.2 hPa South 8 km/h 9.3 km/h 71 % 0.0 mm open2300-1.11 W/m2
12:11 17.1 °C 12.0 °C 1021.2 hPa South 4.2 km/h 10.3 km/h 72 % 0.0 mm open2300-1.11 W/m2
13:11 18.3 °C 12.8 °C 1020.2 hPa SW 4.2 km/h 7.6 km/h 70 % 0.0 mm open2300-1.11 W/m2
14:11 18.9 °C 12.8 °C 1019.9 hPa West 5.6 km/h 5.6 km/h 68 % 0.0 mm open2300-1.11 W/m2
15:11 18.6 °C 12.8 °C 1019.2 hPa Calm   5.1 km/h 69 % 0.0 mm open2300-1.11 W/m2
16:11 18.5 °C 12.9 °C 1018.5 hPa WSW 3.4 km/h 12.2 km/h 70 % 0.0 mm open2300-1.11 W/m2
17:11 17.8 °C 12.5 °C 1017.8 hPa SSW 24.3 km/h 24.3 km/h 71 % 0.0 mm open2300-1.11 W/m2
18:11 17.6 °C 12.3 °C 1016.8 hPa West 5.1 km/h 5.1 km/h 71 % 0.0 mm open2300-1.11 W/m2
19:11 16.4 °C 11.2 °C 1016.1 hPa Calm   5.6 km/h 71 % 0.0 mm open2300-1.11 W/m2
20:11 15.6 °C 10.8 °C 1015.8 hPa Calm   5.6 km/h 73 % 0.0 mm open2300-1.11 W/m2
21:11 14.9 °C 10.5 °C 1016.1 hPa Calm   3.4 km/h 75 % 0.0 mm open2300-1.11 W/m2
22:11 14.6 °C 10.2 °C 1016.1 hPa Calm     75 % 0.0 mm open2300-1.11 W/m2
23:11 14.5 °C 10.3 °C 1015.8 hPa SE 2.3 km/h 6.4 km/h 76 % 0.0 mm open2300-1.11 W/m2
Observations météo à CASSIS
WU-History script by Weather Underground - 1 mb